Terminal Aerodrome Forecast
Issued by NWS Wilmington, NC

Home | Current Version | Previous Version | Text Only | Print | Product List | Glossary On
Versions: 1 2 3 4 5 6 7 8 9 10 11 12 13 14 15
872
FTUS42 KILM 122330
TAFMYR
TAF
KMYR 122330Z 1300/1324 32008KT P6SM SCT015 BKN020
     FM130200 31006KT P6SM SCT020 BKN050
     FM130500 32004KT P6SM FEW250
     FM131300 35015G24KT P6SM SKC
     FM132200 34011KT P6SM SKC
      AMD LTD TO CLD VIS AND WIND 1304/1311=

USA.gov is the U.S. government's official web portal to all federal, state and local government web resources and services.